Beauraing, Belgium
Current Conditions -  °F | °C
As of 3:25 AM on Thursday 27 Nov 2014 (Local Time) from EBFS Reporting Station
Haze Haze  
Wind Chill:   Ceiling: 200
Heat Index:   Visibility: 2.1mi
Dew Point:   Wind: 7mph
Humidity: 93%   Direction: 140°SE
Pressure: 29.77"   Gusts: NA
Location:  50.11°N, 4.96°E
Report Text: EBFS 270225Z 14006KT 3400 BR BKN002 08/07 Q1008 AMB
Loading
Personal Weather Stations






























Interactive Weather Map New forecast layout! Learn more

10-Day Weather Forecast

Advertisements
Track Severe Weather on mobile